createdAt,value
2024-05-09T00:00:36.372Z,14.19
2024-05-09T00:03:08.392Z,14.17
2024-05-09T00:05:36.910Z,14.13
2024-05-09T00:08:04.503Z,14.05
2024-05-09T00:10:36.538Z,13.96
2024-05-09T00:13:06.981Z,14.07
2024-05-09T00:15:35.234Z,14.02
2024-05-09T00:18:03.386Z,13.91
2024-05-09T00:20:38.212Z,13.99
2024-05-09T00:23:09.346Z,14.02
2024-05-09T00:25:37.718Z,13.93
2024-05-09T00:28:05.361Z,13.85
2024-05-09T00:30:35.570Z,13.84
2024-05-09T00:33:07.019Z,13.84
2024-05-09T00:35:35.480Z,13.67
2024-05-09T00:38:03.599Z,13.72
2024-05-09T00:40:41.827Z,13.70
2024-05-09T00:43:12.418Z,13.53
2024-05-09T00:45:40.494Z,13.63
2024-05-09T00:48:09.368Z,13.61
2024-05-09T00:50:41.652Z,13.71
2024-05-09T00:53:11.984Z,13.73
2024-05-09T00:55:40.488Z,13.54
2024-05-09T00:58:11.040Z,13.66
2024-05-09T01:00:40.495Z,13.51
2024-05-09T01:03:11.506Z,13.49
2024-05-09T01:05:40.695Z,13.47
2024-05-09T01:08:08.430Z,13.45
2024-05-09T01:10:36.712Z,13.47
2024-05-09T01:13:05.784Z,13.45
2024-05-09T01:15:33.764Z,13.39
2024-05-09T01:18:04.746Z,13.27
2024-05-09T01:20:40.532Z,13.26
2024-05-09T01:23:11.160Z,13.26
2024-05-09T01:25:38.399Z,13.18
2024-05-09T01:28:06.012Z,13.18
2024-05-09T01:30:35.824Z,13.19
2024-05-09T01:33:07.393Z,13.19
2024-05-09T01:35:36.374Z,13.15
2024-05-09T01:38:03.650Z,13.10
2024-05-09T01:40:37.346Z,13.10
2024-05-09T01:43:10.956Z,13.10
2024-05-09T01:45:40.037Z,12.97
2024-05-09T01:48:08.444Z,12.94
2024-05-09T01:50:39.864Z,12.95
2024-05-09T01:53:14.577Z,12.91
2024-05-09T01:55:43.036Z,12.85
2024-05-09T01:58:10.483Z,12.99
2024-05-09T02:00:41.347Z,12.95
2024-05-09T02:03:14.398Z,12.89
2024-05-09T02:05:44.891Z,12.83
2024-05-09T02:08:18.144Z,12.81
2024-05-09T02:10:47.482Z,12.87
2024-05-09T02:13:15.875Z,12.87
2024-05-09T02:15:43.271Z,12.67
2024-05-09T02:18:11.038Z,12.79
2024-05-09T02:20:40.643Z,12.76
2024-05-09T02:23:09.292Z,12.75
2024-05-09T02:25:36.497Z,12.69
2024-05-09T02:28:03.606Z,12.71
2024-05-09T02:30:38.848Z,12.57
2024-05-09T02:33:11.282Z,12.61
2024-05-09T02:35:40.267Z,12.54
2024-05-09T02:38:11.531Z,12.54
2024-05-09T02:40:39.875Z,12.54
2024-05-09T02:43:09.818Z,12.59
2024-05-09T02:45:38.257Z,12.30
2024-05-09T02:48:06.622Z,12.52
2024-05-09T02:50:38.477Z,12.44
2024-05-09T02:53:08.793Z,12.40
2024-05-09T02:55:37.378Z,12.49
2024-05-09T02:58:04.900Z,12.51
2024-05-09T03:00:39.130Z,12.51
2024-05-09T03:03:10.800Z,12.53
2024-05-09T03:05:40.162Z,12.37
2024-05-09T03:08:08.479Z,12.39
2024-05-09T03:10:37.814Z,12.25
2024-05-09T03:13:15.062Z,12.33
2024-05-09T03:15:43.730Z,12.33
2024-05-09T03:18:11.937Z,12.31
2024-05-09T03:20:39.984Z,12.16
2024-05-09T03:23:09.380Z,12.27
2024-05-09T03:25:38.077Z,12.24
2024-05-09T03:28:05.633Z,12.16
2024-05-09T03:30:40.039Z,12.03
2024-05-09T03:33:20.496Z,12.03
2024-05-09T03:35:49.230Z,12.16
2024-05-09T03:38:17.026Z,12.07
2024-05-09T03:40:53.323Z,12.17
2024-05-09T03:43:20.371Z,12.16
2024-05-09T03:45:49.353Z,12.11
2024-05-09T03:48:17.036Z,12.08
2024-05-09T03:50:44.320Z,12.09
2024-05-09T03:53:13.920Z,12.05
2024-05-09T03:55:41.416Z,12.07
2024-05-09T03:58:08.684Z,12.11
2024-05-09T04:00:39.179Z,11.97
2024-05-09T04:03:10.474Z,12.10
2024-05-09T04:05:42.086Z,12.11
2024-05-09T04:08:11.501Z,12.05
2024-05-09T04:10:38.796Z,11.97
2024-05-09T04:13:05.931Z,12.09
2024-05-09T04:15:33.006Z,12.11
2024-05-09T04:18:00.735Z,12.03
2024-05-09T04:20:36.263Z,12.05
2024-05-09T04:23:08.270Z,12.16
2024-05-09T04:25:36.393Z,12.10
2024-05-09T04:28:03.740Z,12.15
2024-05-09T04:30:37.373Z,12.15
2024-05-09T04:33:09.359Z,12.14
2024-05-09T04:35:38.908Z,12.03
2024-05-09T04:38:07.602Z,12.09
2024-05-09T04:40:36.790Z,12.10
2024-05-09T04:43:15.964Z,12.14
2024-05-09T04:45:43.164Z,12.17
2024-05-09T04:48:10.725Z,12.16
2024-05-09T04:50:39.449Z,12.19
2024-05-09T04:53:10.028Z,12.18
2024-05-09T04:55:38.564Z,12.24
2024-05-09T04:58:09.021Z,12.07
2024-05-09T05:00:38.766Z,12.19
2024-05-09T05:03:12.756Z,12.18
2024-05-09T05:05:43.620Z,12.16
2024-05-09T05:08:18.184Z,12.22
2024-05-09T05:10:49.018Z,11.73
2024-05-09T05:13:18.292Z,11.84
2024-05-09T05:15:47.470Z,11.97
2024-05-09T05:18:15.942Z,11.84
2024-05-09T05:20:43.555Z,11.84
2024-05-09T05:23:15.744Z,12.09
2024-05-09T05:25:43.097Z,12.14
2024-05-09T05:28:10.961Z,12.12
2024-05-09T05:30:38.808Z,12.15
2024-05-09T05:33:07.165Z,12.14
2024-05-09T05:35:35.147Z,12.11
2024-05-09T05:38:03.409Z,11.88
2024-05-09T05:40:37.083Z,12.12
2024-05-09T05:43:08.302Z,12.17
2024-05-09T05:45:35.355Z,12.19
2024-05-09T05:48:05.902Z,12.06
2024-05-09T05:50:36.714Z,12.04
2024-05-09T05:53:07.813Z,12.22
2024-05-09T05:55:36.645Z,12.23
2024-05-09T05:58:04.023Z,12.22
2024-05-09T06:00:38.140Z,12.13
2024-05-09T06:03:14.297Z,12.08
2024-05-09T06:05:46.023Z,12.05
2024-05-09T06:08:13.246Z,11.92
2024-05-09T06:10:41.934Z,12.02
2024-05-09T06:13:13.126Z,12.03
2024-05-09T06:15:41.468Z,12.03
2024-05-09T06:18:10.983Z,12.07
2024-05-09T06:20:40.359Z,12.03
2024-05-09T06:23:09.723Z,12.07
2024-05-09T06:25:37.964Z,12.01
2024-05-09T06:28:05.694Z,12.06
2024-05-09T06:30:42.665Z,12.15
2024-05-09T06:33:13.202Z,12.20
2024-05-09T06:35:42.617Z,12.22
2024-05-09T06:38:09.949Z,12.07
2024-05-09T06:40:41.232Z,12.14
2024-05-09T06:43:18.872Z,12.18
2024-05-09T06:45:54.802Z,11.88
2024-05-09T06:48:22.813Z,11.65
2024-05-09T06:50:52.141Z,11.18
2024-05-09T06:53:23.489Z,11.33
2024-05-09T06:55:50.732Z,11.59
2024-05-09T06:58:18.103Z,11.77
2024-05-09T07:00:45.104Z,11.89
2024-05-09T07:03:16.673Z,12.03
2024-05-09T07:05:46.537Z,12.13
2024-05-09T07:08:14.606Z,12.11
2024-05-09T07:10:41.784Z,12.18
2024-05-09T07:13:13.670Z,12.26
2024-05-09T07:15:41.852Z,12.30
2024-05-09T07:18:20.252Z,12.24
2024-05-09T07:20:49.232Z,12.35
2024-05-09T07:23:17.962Z,12.39
2024-05-09T07:25:45.323Z,12.38
2024-05-09T07:28:17.918Z,12.48
2024-05-09T07:30:46.082Z,12.46
2024-05-09T07:33:22.911Z,12.54
2024-05-09T07:35:51.405Z,12.57
2024-05-09T07:38:18.908Z,12.57
2024-05-09T07:40:46.203Z,12.32
2024-05-09T07:43:14.585Z,12.49
2024-05-09T07:45:50.825Z,12.47
2024-05-09T07:52:37.809Z,12.63
2024-05-09T07:53:47.750Z,12.75
2024-05-09T07:56:20.382Z,12.80
2024-05-09T07:58:51.245Z,12.85
2024-05-09T08:01:18.787Z,12.87
2024-05-09T08:03:46.248Z,12.86
2024-05-09T08:06:13.498Z,12.97
2024-05-09T08:08:41.147Z,13.00
2024-05-09T08:11:08.145Z,13.15
2024-05-09T08:13:35.121Z,13.26
2024-05-09T08:16:02.176Z,13.48
2024-05-09T08:18:29.537Z,13.53
2024-05-09T08:20:56.736Z,13.56
2024-05-09T08:23:23.943Z,13.54
2024-05-09T08:25:52.799Z,13.79
2024-05-09T08:28:19.865Z,13.90
2024-05-09T08:30:46.957Z,13.79
2024-05-09T08:33:14.261Z,13.93
2024-05-09T08:35:42.040Z,14.02
2024-05-09T08:38:09.812Z,14.19
2024-05-09T08:40:38.022Z,14.16
2024-05-09T08:43:11.584Z,14.17
2024-05-09T08:45:44.056Z,14.17
2024-05-09T08:48:15.169Z,14.13
2024-05-09T08:50:44.838Z,14.22
2024-05-09T08:53:14.447Z,14.20
2024-05-09T08:55:43.462Z,14.29
2024-05-09T08:58:16.683Z,14.34
2024-05-09T09:00:46.170Z,14.27
2024-05-09T09:03:19.714Z,14.45
2024-05-09T09:06:09.201Z,14.52
2024-05-09T09:08:39.422Z,14.56
2024-05-09T09:11:06.678Z,14.54
2024-05-09T09:13:33.631Z,14.66
2024-05-09T09:16:02.676Z,14.63
2024-05-09T09:18:33.204Z,14.72
2024-05-09T09:21:00.372Z,14.78
2024-05-09T09:23:29.758Z,14.81
2024-05-09T09:26:00.611Z,14.85
2024-05-09T09:28:27.797Z,15.02
2024-05-09T09:31:03.268Z,15.09
2024-05-09T09:33:31.700Z,15.13
2024-05-09T09:36:00.602Z,15.14
2024-05-09T09:38:32.518Z,15.25
2024-05-09T09:41:01.521Z,15.25
2024-05-09T09:43:29.580Z,15.36
2024-05-09T09:45:59.891Z,15.41
2024-05-09T09:48:31.288Z,15.30
2024-05-09T09:50:59.581Z,15.19
2024-05-09T09:53:28.684Z,15.39
2024-05-09T09:55:56.202Z,15.35
2024-05-09T09:58:23.903Z,15.37
2024-05-09T10:00:51.068Z,15.35
2024-05-09T10:03:18.101Z,15.51
2024-05-09T10:05:47.150Z,15.56
2024-05-09T10:08:16.010Z,15.62
2024-05-09T10:10:47.576Z,15.55
2024-05-09T10:13:15.212Z,15.55
2024-05-09T10:15:46.430Z,15.53
2024-05-09T10:18:14.579Z,15.69
2024-05-09T10:20:46.454Z,15.79
2024-05-09T10:23:26.964Z,15.77
2024-05-09T10:26:05.334Z,15.67
2024-05-09T10:28:35.621Z,15.69
2024-05-09T10:31:15.696Z,15.73
2024-05-09T10:33:49.392Z,15.83
2024-05-09T10:36:26.823Z,16.03
2024-05-09T10:38:54.737Z,16.04
2024-05-09T10:41:23.473Z,16.09
2024-05-09T10:43:52.628Z,15.88
2024-05-09T10:46:20.224Z,16.06
2024-05-09T10:48:48.438Z,16.13
2024-05-09T10:51:19.534Z,16.17
2024-05-09T10:53:48.213Z,16.21
2024-05-09T10:56:15.888Z,16.25
2024-05-09T10:58:42.997Z,16.23
2024-05-09T11:01:10.988Z,16.29
2024-05-09T11:03:39.260Z,16.31
2024-05-09T11:06:07.215Z,16.24
2024-05-09T11:08:35.103Z,16.25
2024-05-09T11:11:07.166Z,16.40
2024-05-09T11:13:39.119Z,16.44
2024-05-09T11:16:21.888Z,16.43
2024-05-09T11:18:57.210Z,16.57
2024-05-09T11:21:24.899Z,16.55
2024-05-09T11:23:53.714Z,16.61
2024-05-09T11:26:22.060Z,16.72
2024-05-09T11:28:50.538Z,16.52
2024-05-09T11:31:18.145Z,16.89
2024-05-09T11:33:48.210Z,16.98
2024-05-09T11:36:15.818Z,17.02
2024-05-09T11:38:43.043Z,17.04
2024-05-09T11:41:18.023Z,17.07
2024-05-09T11:43:45.052Z,17.05
2024-05-09T11:46:12.211Z,17.12
2024-05-09T11:48:40.581Z,17.16
2024-05-09T11:51:07.717Z,17.28
2024-05-09T11:53:34.703Z,17.38
2024-05-09T11:56:01.650Z,17.28
2024-05-09T11:58:34.151Z,17.39
2024-05-09T12:01:02.159Z,17.37
2024-05-09T12:03:29.631Z,17.42
2024-05-09T12:05:57.009Z,17.40
2024-05-09T12:08:24.075Z,17.40
2024-05-09T12:10:52.183Z,17.42
2024-05-09T12:13:19.345Z,17.44
2024-05-09T12:15:46.405Z,17.57
2024-05-09T12:18:13.474Z,17.63
2024-05-09T12:20:40.531Z,17.78
2024-05-09T12:23:09.620Z,17.83
2024-05-09T12:25:38.748Z,17.84
2024-05-09T12:28:07.206Z,18.15
2024-05-09T12:30:38.476Z,19.14
2024-05-09T12:33:14.164Z,19.14
2024-05-09T12:35:44.380Z,18.87
2024-05-09T12:38:14.913Z,19.00
2024-05-09T12:40:42.716Z,18.76
2024-05-09T12:43:10.862Z,18.87
2024-05-09T12:45:39.368Z,18.72
2024-05-09T12:48:11.745Z,18.67
2024-05-09T12:50:40.403Z,18.63
2024-05-09T12:53:07.526Z,18.51
2024-05-09T12:55:41.386Z,18.49
2024-05-09T12:58:17.418Z,18.49
2024-05-09T13:00:45.320Z,18.40
2024-05-09T13:03:12.787Z,18.35
2024-05-09T13:05:41.443Z,18.40
2024-05-09T13:08:09.102Z,18.30
2024-05-09T13:10:36.766Z,18.33
2024-05-09T13:13:03.857Z,18.39
2024-05-09T13:15:31.591Z,18.37
2024-05-09T13:18:02.170Z,18.40
2024-05-09T13:20:34.428Z,18.43
2024-05-09T13:23:05.647Z,18.37
2024-05-09T13:25:37.739Z,18.39
2024-05-09T13:28:06.259Z,18.47
2024-05-09T13:30:39.786Z,18.42
2024-05-09T13:33:11.580Z,18.42
2024-05-09T13:35:45.530Z,18.45
2024-05-09T13:38:16.801Z,18.44
2024-05-09T13:40:43.986Z,18.50
2024-05-09T13:43:11.187Z,18.41
2024-05-09T13:45:38.241Z,18.72
2024-05-09T13:48:06.872Z,18.66
2024-05-09T13:50:36.340Z,18.71
2024-05-09T13:53:06.479Z,18.58
2024-05-09T13:55:35.105Z,18.71
2024-05-09T13:58:02.809Z,18.60
2024-05-09T14:02:59.808Z,18.67
2024-05-09T14:05:27.027Z,18.68
2024-05-09T14:07:54.114Z,18.72
2024-05-09T14:10:28.449Z,18.76
2024-05-09T14:12:57.923Z,18.76
2024-05-09T14:15:24.922Z,18.68
2024-05-09T14:17:51.960Z,18.70
2024-05-09T14:20:28.522Z,18.81
2024-05-09T14:22:59.249Z,18.63
2024-05-09T14:25:35.082Z,18.90
2024-05-09T14:28:04.145Z,19.12
2024-05-09T14:30:36.745Z,19.02
2024-05-09T14:33:06.639Z,19.45
2024-05-09T14:35:34.657Z,19.49
2024-05-09T14:38:02.068Z,19.40
2024-05-09T14:40:39.107Z,19.44
2024-05-09T14:43:14.883Z,19.40
2024-05-09T14:45:43.703Z,19.41
2024-05-09T14:48:14.142Z,19.44
2024-05-09T14:50:41.759Z,19.40
2024-05-09T14:53:11.031Z,19.43
2024-05-09T14:55:41.344Z,19.39
2024-05-09T14:58:12.136Z,19.23
2024-05-09T15:00:46.926Z,19.43
2024-05-09T15:03:18.741Z,19.46
2024-05-09T15:05:47.489Z,19.42
2024-05-09T15:08:16.738Z,19.46
2024-05-09T15:10:43.935Z,19.53
2024-05-09T15:13:13.467Z,19.76
2024-05-09T15:15:42.784Z,19.73
2024-05-09T15:18:10.153Z,19.66
2024-05-09T15:20:37.916Z,19.57
2024-05-09T15:23:07.011Z,19.35
2024-05-09T15:25:35.704Z,19.50
2024-05-09T15:28:03.749Z,19.33
2024-05-09T15:30:33.156Z,19.44
2024-05-09T15:33:06.041Z,19.37
2024-05-09T15:35:34.283Z,19.41
2024-05-09T15:38:03.215Z,19.46
2024-05-09T15:40:37.778Z,19.33
2024-05-09T15:43:09.131Z,19.37
2024-05-09T15:45:37.769Z,19.31
2024-05-09T15:48:06.006Z,19.42
2024-05-09T15:50:38.693Z,19.46
2024-05-09T15:53:09.906Z,19.49
2024-05-09T15:55:38.044Z,19.55
2024-05-09T15:58:06.419Z,19.54
2024-05-09T16:00:38.852Z,19.50
2024-05-09T16:03:10.490Z,19.61
2024-05-09T16:05:38.213Z,19.63
2024-05-09T16:08:07.289Z,19.63
2024-05-09T16:10:35.148Z,19.58
2024-05-09T16:13:03.543Z,19.64
2024-05-09T16:15:31.266Z,19.68
2024-05-09T16:17:58.478Z,19.63
2024-05-09T16:20:34.720Z,19.65
2024-05-09T16:23:07.813Z,19.55
2024-05-09T16:25:35.063Z,19.70
2024-05-09T16:28:07.049Z,19.69
2024-05-09T16:30:36.933Z,19.63
2024-05-09T16:33:05.525Z,19.68
2024-05-09T16:35:34.469Z,19.67
2024-05-09T16:38:02.771Z,19.64
2024-05-09T16:40:37.347Z,19.72
2024-05-09T16:43:10.905Z,19.56
2024-05-09T16:45:40.325Z,19.68
2024-05-09T16:48:08.526Z,19.72
2024-05-09T16:50:36.499Z,19.65
2024-05-09T16:53:06.246Z,19.64
2024-05-09T16:55:34.637Z,19.63
2024-05-09T16:58:02.687Z,19.70
2024-05-09T17:00:39.339Z,19.74
2024-05-09T17:03:14.700Z,19.65
2024-05-09T17:05:43.359Z,19.59
2024-05-09T17:08:10.616Z,19.74
2024-05-09T17:10:37.725Z,19.66
2024-05-09T17:13:06.828Z,19.67
2024-05-09T17:15:36.203Z,19.70
2024-05-09T17:18:04.854Z,19.65
2024-05-09T17:20:35.666Z,19.73
2024-05-09T17:23:12.361Z,19.63
2024-05-09T17:25:40.115Z,19.57
2024-05-09T17:28:08.337Z,19.66
2024-05-09T17:30:38.616Z,19.48
2024-05-09T17:33:09.414Z,19.61
2024-05-09T17:35:37.551Z,19.56
2024-05-09T17:38:08.279Z,19.47
2024-05-09T17:40:37.411Z,19.56
2024-05-09T17:43:08.460Z,19.54
2024-05-09T17:45:38.392Z,19.41
2024-05-09T17:48:06.584Z,19.37
2024-05-09T17:50:36.342Z,19.36
2024-05-09T17:53:08.232Z,19.30
2024-05-09T17:55:36.530Z,19.31
2024-05-09T17:58:05.119Z,19.36
2024-05-09T18:00:38.353Z,19.26
2024-05-09T18:03:11.726Z,19.34
2024-05-09T18:05:39.934Z,19.29
2024-05-09T18:08:08.135Z,19.08
2024-05-09T18:10:38.550Z,19.14
2024-05-09T18:13:09.000Z,19.06
2024-05-09T18:15:36.488Z,18.85
2024-05-09T18:18:04.604Z,18.94
2024-05-09T18:20:40.487Z,18.80
2024-05-09T18:23:13.054Z,18.71
2024-05-09T18:25:40.096Z,18.77
2024-05-09T18:28:07.707Z,18.67
2024-05-09T18:30:38.405Z,18.62
2024-05-09T18:33:07.679Z,18.61
2024-05-09T18:35:36.249Z,18.48
2024-05-09T18:38:04.074Z,18.53
2024-05-09T18:40:35.729Z,18.35
2024-05-09T18:43:07.591Z,18.42
2024-05-09T18:45:39.876Z,18.33
2024-05-09T18:48:09.672Z,18.40
2024-05-09T18:50:40.216Z,18.30
2024-05-09T18:53:12.727Z,18.27
2024-05-09T18:55:41.598Z,18.24
2024-05-09T18:58:08.727Z,18.18
2024-05-09T19:00:38.852Z,18.10
2024-05-09T19:03:10.938Z,17.99
2024-05-09T19:05:40.834Z,17.99
2024-05-09T19:08:08.821Z,17.86
2024-05-09T19:10:38.858Z,17.79
2024-05-09T19:13:10.897Z,17.72
2024-05-09T19:15:40.749Z,17.60
2024-05-09T19:18:09.480Z,17.52
2024-05-09T19:20:37.360Z,17.53
2024-05-09T19:23:06.149Z,17.54
2024-05-09T19:25:34.404Z,17.48
2024-05-09T19:28:01.654Z,17.37
2024-05-09T19:30:37.144Z,17.32
2024-05-09T19:33:08.422Z,17.33
2024-05-09T19:35:35.884Z,17.24
2024-05-09T19:38:03.090Z,17.20
2024-05-09T19:40:32.459Z,17.15
2024-05-09T19:43:02.694Z,17.21
2024-05-09T19:45:31.215Z,17.17
2024-05-09T19:47:58.765Z,17.11
2024-05-09T19:50:36.168Z,17.17
2024-05-09T19:53:08.785Z,17.10
2024-05-09T19:55:35.819Z,16.99
2024-05-09T19:58:05.443Z,16.84
2024-05-09T20:00:40.391Z,16.98
2024-05-09T20:03:11.286Z,16.90
2024-05-09T20:05:39.324Z,16.87
2024-05-09T20:08:07.156Z,16.89
2024-05-09T20:10:35.787Z,16.87
2024-05-09T20:13:06.678Z,16.85
2024-05-09T20:15:35.732Z,16.87
2024-05-09T20:18:03.410Z,16.84
2024-05-09T20:20:37.498Z,16.70
2024-05-09T20:23:09.201Z,16.54
2024-05-09T20:25:36.379Z,16.73
2024-05-09T20:28:03.577Z,16.70
2024-05-09T20:30:33.047Z,16.58
2024-05-09T20:33:07.350Z,16.68
2024-05-09T20:35:35.770Z,16.57
2024-05-09T20:38:03.654Z,16.48
2024-05-09T20:40:35.394Z,16.54
2024-05-09T20:43:06.745Z,16.51
2024-05-09T20:45:34.539Z,16.54
2024-05-09T20:48:02.174Z,16.52
2024-05-09T20:50:37.083Z,16.42
2024-05-09T20:53:13.121Z,16.40
2024-05-09T20:55:41.566Z,16.38
2024-05-09T20:58:09.632Z,16.36
2024-05-09T21:00:40.608Z,16.15
2024-05-09T21:03:11.649Z,16.28
2024-05-09T21:05:39.498Z,16.26
2024-05-09T21:08:07.538Z,16.03
2024-05-09T21:10:36.228Z,16.10
2024-05-09T21:13:04.207Z,16.01
2024-05-09T21:15:32.059Z,16.13
2024-05-09T21:17:59.691Z,16.11
2024-05-09T21:22:57.687Z,15.96
2024-05-09T21:25:24.708Z,16.03
2024-05-09T21:27:51.874Z,16.01
2024-05-09T21:30:28.143Z,15.87
2024-05-09T21:33:05.145Z,15.74
2024-05-09T21:35:32.254Z,15.83
2024-05-09T21:37:59.187Z,15.77
2024-05-09T21:40:33.425Z,15.76
2024-05-09T21:43:02.660Z,15.62
2024-05-09T21:45:29.819Z,15.63
2024-05-09T21:47:56.888Z,15.60
2024-05-09T21:50:31.834Z,15.64
2024-05-09T21:53:05.829Z,15.48
2024-05-09T21:55:32.782Z,15.51
2024-05-09T21:57:59.802Z,15.43
2024-05-09T22:00:34.619Z,15.29
2024-05-09T22:03:05.344Z,15.37
2024-05-09T22:05:32.858Z,15.33
2024-05-09T22:08:00.067Z,15.35
2024-05-09T22:10:33.261Z,15.38
2024-05-09T22:13:04.024Z,15.26
2024-05-09T22:15:35.361Z,15.21
2024-05-09T22:18:03.852Z,15.20
2024-05-09T22:20:36.896Z,15.18
2024-05-09T22:23:06.254Z,15.11
2024-05-09T22:25:33.714Z,14.96
2024-05-09T22:28:01.996Z,14.99
2024-05-09T22:32:59.203Z,14.84
2024-05-09T22:35:26.457Z,14.75
2024-05-09T22:37:53.510Z,14.80
2024-05-09T22:40:28.375Z,14.81
2024-05-09T22:43:04.803Z,14.84
2024-05-09T22:45:31.955Z,14.79
2024-05-09T22:47:59.371Z,14.71
2024-05-09T22:50:30.605Z,14.61
2024-05-09T22:52:59.658Z,14.65
2024-05-09T22:55:26.660Z,14.76
2024-05-09T22:57:53.631Z,14.68
2024-05-09T23:00:29.207Z,14.52
2024-05-09T23:03:02.714Z,14.41
2024-05-09T23:05:32.062Z,14.59
2024-05-09T23:08:00.997Z,14.60
2024-05-09T23:10:35.218Z,14.61
2024-05-09T23:13:05.412Z,14.54
2024-05-09T23:15:32.662Z,14.49
2024-05-09T23:17:59.897Z,14.49
2024-05-09T23:20:35.926Z,14.38
2024-05-09T23:23:10.599Z,14.41
2024-05-09T23:25:38.850Z,14.35
2024-05-09T23:28:06.418Z,14.26
2024-05-09T23:30:38.755Z,14.16
2024-05-09T23:33:10.994Z,14.24
2024-05-09T23:35:40.871Z,14.18
2024-05-09T23:38:07.889Z,14.10
2024-05-09T23:40:38.928Z,13.93
2024-05-09T23:43:09.732Z,14.00
2024-05-09T23:45:37.659Z,13.93
2024-05-09T23:48:06.203Z,13.84
2024-05-09T23:50:37.508Z,13.93
2024-05-09T23:53:07.998Z,13.90
2024-05-09T23:55:36.370Z,13.89
2024-05-09T23:58:03.582Z,13.97
